createdAt,value
2018-10-16T00:00:01.376Z,10.92
2018-10-16T00:01:01.371Z,10.92
2018-10-16T00:02:01.365Z,10.96
2018-10-16T00:03:01.412Z,10.90
2018-10-16T00:04:01.357Z,10.94
2018-10-16T00:05:01.354Z,10.87
2018-10-16T00:06:01.351Z,10.92
2018-10-16T00:07:01.345Z,10.86
2018-10-16T00:08:01.344Z,10.86
2018-10-16T00:09:01.338Z,10.84
2018-10-16T00:10:01.333Z,10.72
2018-10-16T00:11:01.332Z,10.75
2018-10-16T00:12:01.325Z,10.74
2018-10-16T00:13:01.321Z,10.74
2018-10-16T00:14:01.317Z,10.78
2018-10-16T00:15:01.310Z,10.76
2018-10-16T00:16:01.307Z,10.71
2018-10-16T00:17:01.307Z,10.78
2018-10-16T00:18:01.298Z,10.75
2018-10-16T00:19:01.295Z,10.75
2018-10-16T00:20:01.289Z,10.69
2018-10-16T00:21:01.290Z,10.76
2018-10-16T00:22:01.281Z,10.78
2018-10-16T00:23:01.278Z,10.71
2018-10-16T00:24:01.272Z,10.75
2018-10-16T00:25:01.892Z,10.76
2018-10-16T00:26:01.262Z,10.69
2018-10-16T00:27:01.260Z,10.71
2018-10-16T00:28:01.253Z,10.78
2018-10-16T00:29:01.252Z,10.72
2018-10-16T00:30:01.247Z,10.76
2018-10-16T00:31:01.244Z,10.76
2018-10-16T00:32:01.238Z,10.69
2018-10-16T00:33:01.234Z,10.86
2018-10-16T00:34:01.232Z,10.86
2018-10-16T00:35:01.225Z,10.86
2018-10-16T00:36:01.224Z,10.87
2018-10-16T00:37:01.219Z,10.82
2018-10-16T00:38:01.211Z,10.79
2018-10-16T00:39:01.208Z,10.69
2018-10-16T00:40:01.205Z,10.75
2018-10-16T00:41:01.201Z,10.75
2018-10-16T00:42:01.193Z,10.75
2018-10-16T00:43:01.189Z,10.74
2018-10-16T00:44:01.187Z,10.71
2018-10-16T00:45:01.183Z,10.75
2018-10-16T00:46:01.178Z,10.76
2018-10-16T00:47:01.178Z,10.76
2018-10-16T00:48:01.170Z,10.75
2018-10-16T00:49:01.165Z,10.76
2018-10-16T00:50:01.161Z,10.69
2018-10-16T00:51:01.163Z,10.72
2018-10-16T00:52:01.154Z,10.75
2018-10-16T00:53:01.147Z,10.75
2018-10-16T00:54:01.141Z,10.74
2018-10-16T00:55:01.199Z,10.72
2018-10-16T00:56:01.134Z,10.69
2018-10-16T00:57:01.133Z,10.76
2018-10-16T00:58:01.127Z,10.75
2018-10-16T00:59:01.127Z,10.78
2018-10-16T01:00:01.118Z,10.76
2018-10-16T01:01:01.113Z,10.74
2018-10-16T01:02:01.107Z,10.63
2018-10-16T01:03:01.105Z,10.64
2018-10-16T01:04:01.101Z,10.60
2018-10-16T01:05:01.102Z,10.51
2018-10-16T01:06:01.093Z,10.51
2018-10-16T01:07:01.087Z,10.53
2018-10-16T01:08:01.083Z,10.51
2018-10-16T01:09:01.083Z,10.37
2018-10-16T01:10:01.072Z,10.37
2018-10-16T01:11:01.069Z,10.41
2018-10-16T01:12:01.065Z,10.37
2018-10-16T01:13:01.060Z,10.46
2018-10-16T01:14:01.060Z,10.41
2018-10-16T01:15:01.055Z,10.38
2018-10-16T01:16:01.046Z,10.41
2018-10-16T01:17:01.096Z,10.41
2018-10-16T01:18:01.037Z,10.41
2018-10-16T01:19:01.034Z,10.38
2018-10-16T01:20:01.028Z,10.40
2018-10-16T01:21:01.025Z,10.42
2018-10-16T01:22:01.018Z,10.42
2018-10-16T01:23:01.014Z,10.44
2018-10-16T01:24:01.012Z,10.44
2018-10-16T01:25:01.008Z,10.41
2018-10-16T01:26:01.001Z,10.44
2018-10-16T01:27:00.996Z,10.41
2018-10-16T01:28:00.989Z,10.53
2018-10-16T01:29:00.992Z,10.49
2018-10-16T01:30:00.981Z,10.53
2018-10-16T01:31:00.979Z,10.54
2018-10-16T01:32:00.974Z,10.42
2018-10-16T01:33:00.967Z,10.46
2018-10-16T01:34:00.964Z,10.48
2018-10-16T01:35:00.959Z,10.37
2018-10-16T01:36:00.953Z,10.41
2018-10-16T01:37:00.951Z,10.37
2018-10-16T01:38:00.946Z,10.38
2018-10-16T01:39:00.940Z,10.38
2018-10-16T01:40:00.948Z,10.33
2018-10-16T01:41:00.931Z,10.30
2018-10-16T01:42:00.926Z,10.26
2018-10-16T01:43:00.921Z,10.23
2018-10-16T01:44:00.919Z,10.30
2018-10-16T01:45:00.911Z,10.13
2018-10-16T01:46:00.907Z,10.20
2018-10-16T01:47:00.903Z,10.25
2018-10-16T01:48:00.899Z,10.25
2018-10-16T01:49:00.895Z,10.22
2018-10-16T01:50:00.891Z,10.19
2018-10-16T01:51:00.886Z,10.20
2018-10-16T01:52:00.881Z,10.17
2018-10-16T01:53:00.879Z,10.23
2018-10-16T01:54:00.872Z,10.13
2018-10-16T01:55:00.868Z,10.12
2018-10-16T01:56:00.862Z,10.09
2018-10-16T01:57:00.857Z,10.09
2018-10-16T01:58:00.854Z,10.12
2018-10-16T01:59:00.846Z,10.07
2018-10-16T02:00:00.846Z,10.05
2018-10-16T02:01:00.842Z,10.07
2018-10-16T02:02:00.837Z,10.09
2018-10-16T02:03:00.831Z,10.05
2018-10-16T02:04:00.827Z,10.13
2018-10-16T02:05:00.823Z,10.13
2018-10-16T02:06:00.815Z,10.04
2018-10-16T02:07:00.811Z,10.05
2018-10-16T02:08:00.805Z,10.10
2018-10-16T02:09:00.801Z,10.12
2018-10-16T02:10:00.797Z,10.05
2018-10-16T02:11:00.793Z,10.07
2018-10-16T02:12:00.791Z,10.22
2018-10-16T02:13:00.786Z,10.09
2018-10-16T02:14:00.778Z,10.12
2018-10-16T02:15:00.773Z,10.13
2018-10-16T02:16:00.773Z,10.13
2018-10-16T02:17:00.766Z,10.04
2018-10-16T02:18:00.757Z,9.98
2018-10-16T02:19:00.754Z,9.95
2018-10-16T02:20:00.750Z,9.95
2018-10-16T02:21:00.749Z,10.01
2018-10-16T02:22:00.741Z,10.12
2018-10-16T02:23:00.736Z,10.12
2018-10-16T02:24:00.735Z,9.95
2018-10-16T02:25:00.725Z,10.01
2018-10-16T02:26:00.724Z,9.97
2018-10-16T02:27:00.722Z,9.95
2018-10-16T02:28:00.713Z,9.84
2018-10-16T02:29:00.709Z,9.98
2018-10-16T02:30:00.703Z,9.99
2018-10-16T02:31:00.700Z,10.02
2018-10-16T02:32:00.694Z,9.99
2018-10-16T02:33:00.692Z,10.09
2018-10-16T02:34:00.687Z,9.98
2018-10-16T02:35:00.679Z,10.01
2018-10-16T02:36:00.677Z,10.04
2018-10-16T02:37:00.672Z,9.98
2018-10-16T02:38:00.663Z,10.02
2018-10-16T02:39:00.661Z,9.98
2018-10-16T02:40:00.659Z,10.04
2018-10-16T02:41:00.653Z,10.09
2018-10-16T02:42:00.647Z,10.09
2018-10-16T02:43:00.641Z,10.10
2018-10-16T02:44:00.637Z,9.98
2018-10-16T02:45:00.633Z,9.97
2018-10-16T02:46:00.627Z,9.99
2018-10-16T02:47:00.621Z,9.92
2018-10-16T02:48:00.618Z,9.89
2018-10-16T02:49:00.614Z,9.95
2018-10-16T02:50:00.607Z,9.87
2018-10-16T02:51:00.603Z,9.82
2018-10-16T02:52:00.595Z,9.77
2018-10-16T02:53:00.593Z,9.74
2018-10-16T02:54:00.588Z,9.82
2018-10-16T02:55:00.584Z,9.83
2018-10-16T02:56:00.576Z,9.86
2018-10-16T02:57:00.572Z,9.86
2018-10-16T02:58:00.574Z,9.86
2018-10-16T02:59:00.562Z,9.87
2018-10-16T03:00:00.557Z,9.91
2018-10-16T03:01:00.552Z,9.89
2018-10-16T03:02:00.547Z,9.82
2018-10-16T03:03:00.553Z,9.74
2018-10-16T03:04:00.538Z,9.82
2018-10-16T03:05:00.534Z,9.95
2018-10-16T03:06:00.534Z,10.13
2018-10-16T03:07:00.522Z,10.25
2018-10-16T03:08:00.520Z,10.41
2018-10-16T03:09:00.516Z,10.51
2018-10-16T03:10:00.508Z,10.61
2018-10-16T03:11:00.504Z,10.63
2018-10-16T03:12:00.498Z,10.56
2018-10-16T03:13:00.493Z,10.51
2018-10-16T03:14:00.487Z,10.44
2018-10-16T03:15:00.483Z,10.38
2018-10-16T03:16:00.477Z,10.26
2018-10-16T03:17:00.474Z,10.28
2018-10-16T03:18:00.467Z,10.30
2018-10-16T03:19:00.463Z,10.22
2018-10-16T03:20:00.458Z,10.20
2018-10-16T03:21:00.453Z,10.20
2018-10-16T03:22:00.448Z,10.16
2018-10-16T03:23:00.444Z,10.12
2018-10-16T03:24:00.437Z,10.07
2018-10-16T03:25:00.437Z,10.10
2018-10-16T03:26:00.428Z,10.07
2018-10-16T03:27:00.424Z,10.09
2018-10-16T03:28:00.421Z,9.97
2018-10-16T03:29:00.414Z,10.07
2018-10-16T03:30:00.406Z,9.99
2018-10-16T03:31:00.403Z,9.98
2018-10-16T03:32:00.396Z,10.01
2018-10-16T03:33:00.394Z,9.95
2018-10-16T03:34:00.388Z,9.99
2018-10-16T03:35:00.385Z,9.95
2018-10-16T03:36:00.375Z,10.01
2018-10-16T03:37:00.373Z,9.97
2018-10-16T03:38:00.368Z,9.91
2018-10-16T03:39:00.363Z,9.69
2018-10-16T03:40:00.361Z,9.66
2018-10-16T03:41:00.352Z,9.65
2018-10-16T03:42:00.346Z,9.62
2018-10-16T03:43:00.343Z,9.55
2018-10-16T03:44:00.368Z,9.44
2018-10-16T03:45:00.334Z,9.50
2018-10-16T03:46:00.327Z,9.51
2018-10-16T03:47:00.322Z,9.50
2018-10-16T03:48:00.333Z,9.59
2018-10-16T03:49:00.316Z,9.55
2018-10-16T03:50:00.306Z,9.46
2018-10-16T03:51:00.302Z,9.50
2018-10-16T03:52:00.297Z,9.43
2018-10-16T03:53:00.307Z,9.36
2018-10-16T03:54:00.287Z,9.34
2018-10-16T03:55:00.284Z,9.40
2018-10-16T03:56:00.279Z,9.37
2018-10-16T03:57:00.272Z,9.28
2018-10-16T03:58:00.268Z,9.31
2018-10-16T03:59:00.264Z,9.26
2018-10-16T04:00:00.258Z,9.28
2018-10-16T04:01:00.261Z,9.29
2018-10-16T04:02:00.244Z,9.31
2018-10-16T04:03:00.241Z,9.40
2018-10-16T04:04:00.236Z,9.40
2018-10-16T04:05:00.231Z,9.37
2018-10-16T04:06:00.226Z,9.36
2018-10-16T04:07:00.221Z,9.34
2018-10-16T04:08:00.216Z,9.41
2018-10-16T04:09:00.214Z,9.41
2018-10-16T04:10:00.205Z,9.34
2018-10-16T04:11:00.200Z,9.36
2018-10-16T04:12:00.195Z,9.43
2018-10-16T04:13:00.194Z,9.39
2018-10-16T04:14:00.224Z,9.37
2018-10-16T04:15:00.179Z,9.28
2018-10-16T04:16:00.170Z,9.29
2018-10-16T04:17:00.167Z,9.19
2018-10-16T04:18:00.160Z,9.40
2018-10-16T04:19:00.162Z,9.29
2018-10-16T04:20:00.156Z,9.29
2018-10-16T04:21:00.143Z,9.32
2018-10-16T04:22:00.137Z,9.29
2018-10-16T04:23:00.220Z,9.29
2018-10-16T04:24:00.125Z,9.32
2018-10-16T04:25:00.120Z,9.26
2018-10-16T04:26:00.113Z,9.26
2018-10-16T04:27:00.110Z,9.11
2018-10-16T04:28:00.107Z,9.13
2018-10-16T04:29:00.146Z,9.04
2018-10-16T04:30:00.090Z,9.06
2018-10-16T04:31:00.089Z,9.14
2018-10-16T04:32:00.084Z,9.08
2018-10-16T04:33:00.077Z,8.97
2018-10-16T04:34:00.073Z,9.00
2018-10-16T04:35:00.065Z,9.06
2018-10-16T04:36:00.061Z,8.99
2018-10-16T04:37:00.052Z,9.03
2018-10-16T04:38:00.051Z,8.84
2018-10-16T04:39:00.049Z,8.95
2018-10-16T04:40:00.039Z,8.92
2018-10-16T04:41:00.036Z,8.87
2018-10-16T04:42:00.033Z,8.92
2018-10-16T04:43:00.025Z,8.95
2018-10-16T04:44:00.017Z,8.88
2018-10-16T04:45:00.014Z,8.81
2018-10-16T04:46:00.007Z,8.99
2018-10-16T04:47:00.003Z,8.95
2018-10-16T04:47:59.996Z,9.00
2018-10-16T04:48:59.991Z,8.97
2018-10-16T04:49:59.980Z,8.95
2018-10-16T04:50:59.980Z,8.94
2018-10-16T04:51:59.973Z,8.89
2018-10-16T04:52:59.970Z,8.87
2018-10-16T04:53:59.959Z,8.94
2018-10-16T04:54:59.963Z,8.91
2018-10-16T04:55:59.954Z,8.89
2018-10-16T04:56:59.946Z,8.88
2018-10-16T04:57:59.948Z,8.89
2018-10-16T04:58:59.933Z,8.87
2018-10-16T04:59:59.929Z,8.85
2018-10-16T05:00:59.923Z,8.82
2018-10-16T05:01:59.919Z,8.89
2018-10-16T05:02:59.913Z,8.85
2018-10-16T05:03:59.947Z,8.81
2018-10-16T05:04:59.903Z,8.78
2018-10-16T05:05:59.895Z,8.63
2018-10-16T05:06:59.891Z,8.63
2018-10-16T05:07:59.885Z,8.70
2018-10-16T05:08:59.880Z,8.71
2018-10-16T05:09:59.874Z,8.67
2018-10-16T05:10:59.868Z,8.61
2018-10-16T05:11:59.862Z,8.46
2018-10-16T05:12:59.885Z,8.49
2018-10-16T05:13:59.855Z,8.49
2018-10-16T05:14:59.846Z,8.48
2018-10-16T05:15:59.860Z,8.51
2018-10-16T05:16:59.833Z,8.49
2018-10-16T05:17:59.827Z,8.52
2018-10-16T05:18:59.836Z,8.55
2018-10-16T05:19:59.838Z,8.61
2018-10-16T05:20:59.812Z,8.55
2018-10-16T05:21:59.806Z,8.55
2018-10-16T05:22:59.796Z,8.58
2018-10-16T05:23:59.796Z,8.52
2018-10-16T05:24:59.791Z,8.52
2018-10-16T05:25:59.785Z,8.52
2018-10-16T05:26:59.780Z,8.51
2018-10-16T05:27:59.775Z,8.51
2018-10-16T05:28:59.769Z,8.52
2018-10-16T05:29:59.766Z,8.44
2018-10-16T05:30:59.799Z,8.53
2018-10-16T05:31:59.753Z,8.55
2018-10-16T05:32:59.746Z,8.52
2018-10-16T05:33:59.738Z,8.61
2018-10-16T05:34:59.747Z,8.53
2018-10-16T05:35:59.726Z,8.66
2018-10-16T05:36:59.722Z,8.70
2018-10-16T05:37:59.714Z,8.76
2018-10-16T05:39:00.501Z,8.81
2018-10-16T05:39:59.701Z,8.79
2018-10-16T05:40:59.699Z,8.76
2018-10-16T05:41:59.692Z,8.81
2018-10-16T05:42:59.683Z,8.67
2018-10-16T05:43:59.681Z,8.66
2018-10-16T05:44:59.673Z,8.78
2018-10-16T05:45:59.667Z,8.78
2018-10-16T05:46:59.665Z,8.82
2018-10-16T05:47:59.651Z,8.74
2018-10-16T05:48:59.654Z,8.85
2018-10-16T05:49:59.645Z,8.82
2018-10-16T05:50:59.644Z,8.85
2018-10-16T05:51:59.633Z,8.87
2018-10-16T05:52:59.630Z,8.82
2018-10-16T05:53:59.619Z,8.82
2018-10-16T05:54:59.614Z,8.84
2018-10-16T05:55:59.609Z,8.87
2018-10-16T05:56:59.603Z,8.87
2018-10-16T05:57:59.598Z,8.85
2018-10-16T05:58:59.594Z,8.89
2018-10-16T05:59:59.591Z,8.91
2018-10-16T06:00:59.588Z,8.92
2018-10-16T06:01:59.575Z,8.89
2018-10-16T06:02:59.571Z,8.91
2018-10-16T06:03:59.567Z,8.91
2018-10-16T06:04:59.555Z,8.95
2018-10-16T06:05:59.553Z,8.97
2018-10-16T06:06:59.553Z,9.06
2018-10-16T06:07:59.542Z,9.10
2018-10-16T06:08:59.540Z,9.08
2018-10-16T06:09:59.536Z,9.16
2018-10-16T06:10:59.666Z,9.19
2018-10-16T06:11:59.521Z,9.23
2018-10-16T06:12:59.513Z,9.25
2018-10-16T06:13:59.510Z,9.29
2018-10-16T06:14:59.504Z,9.26
2018-10-16T06:15:59.543Z,9.39
2018-10-16T06:16:59.494Z,9.41
2018-10-16T06:17:59.489Z,9.44
2018-10-16T06:18:59.481Z,9.55
2018-10-16T06:19:59.478Z,9.56
2018-10-16T06:20:59.476Z,9.59
2018-10-16T06:21:59.466Z,9.56
2018-10-16T06:22:59.461Z,9.56
2018-10-16T06:23:59.455Z,9.66
2018-10-16T06:24:59.450Z,9.62
2018-10-16T06:25:59.447Z,9.74
2018-10-16T06:26:59.438Z,9.72
2018-10-16T06:27:59.432Z,9.73
2018-10-16T06:28:59.428Z,9.84
2018-10-16T06:29:59.423Z,9.86
2018-10-16T06:30:59.421Z,9.91
2018-10-16T06:31:59.414Z,9.99
2018-10-16T06:32:59.408Z,9.98
2018-10-16T06:33:59.403Z,10.01
2018-10-16T06:34:59.404Z,10.05
2018-10-16T06:35:59.394Z,10.09
2018-10-16T06:36:59.388Z,10.07
2018-10-16T06:37:59.386Z,10.16
2018-10-16T06:38:59.380Z,10.15
2018-10-16T06:39:59.373Z,10.28
2018-10-16T06:40:59.590Z,10.26
2018-10-16T06:41:59.362Z,10.28
2018-10-16T06:42:59.357Z,10.23
2018-10-16T06:43:59.405Z,10.31
2018-10-16T06:44:59.348Z,10.41
2018-10-16T06:45:59.347Z,10.38
2018-10-16T06:46:59.335Z,10.35
2018-10-16T06:47:59.373Z,10.48
2018-10-16T06:48:59.367Z,10.48
2018-10-16T06:49:59.319Z,10.63
2018-10-16T06:50:59.316Z,10.63
2018-10-16T06:51:59.315Z,10.72
2018-10-16T06:52:59.309Z,10.72
2018-10-16T06:53:59.300Z,10.76
2018-10-16T06:54:59.323Z,10.92
2018-10-16T06:55:59.290Z,10.90
2018-10-16T06:56:59.287Z,11.02
2018-10-16T06:57:59.284Z,11.14
2018-10-16T06:58:59.283Z,11.30
2018-10-16T06:59:59.304Z,11.45
2018-10-16T07:00:59.268Z,11.57
2018-10-16T07:01:59.261Z,11.66
2018-10-16T07:02:59.257Z,11.81
2018-10-16T07:03:59.253Z,11.90
2018-10-16T07:04:59.248Z,11.95
2018-10-16T07:05:59.243Z,12.03
2018-10-16T07:06:59.348Z,12.03
2018-10-16T07:07:59.231Z,12.18
2018-10-16T07:08:59.230Z,12.24
2018-10-16T07:09:59.224Z,12.24
2018-10-16T07:10:59.220Z,12.32
2018-10-16T07:11:59.217Z,12.42
2018-10-16T07:12:59.209Z,12.43
2018-10-16T07:13:59.204Z,12.58
2018-10-16T07:14:59.302Z,12.53
2018-10-16T07:15:59.197Z,12.62
2018-10-16T07:16:59.190Z,12.64
2018-10-16T07:17:59.192Z,12.64
2018-10-16T07:18:59.183Z,12.65
2018-10-16T07:19:59.182Z,12.62
2018-10-16T07:20:59.178Z,12.60
2018-10-16T07:21:59.172Z,12.64
2018-10-16T07:22:59.164Z,12.68
2018-10-16T07:23:59.196Z,12.72
2018-10-16T07:24:59.159Z,12.78
2018-10-16T07:25:59.154Z,12.85
2018-10-16T07:26:59.144Z,12.95
2018-10-16T07:27:59.145Z,13.00
2018-10-16T07:28:59.172Z,13.13
2018-10-16T07:29:59.139Z,13.11
2018-10-16T07:30:59.138Z,13.19
2018-10-16T07:31:59.123Z,13.25
2018-10-16T07:32:59.123Z,13.22
2018-10-16T07:33:59.122Z,13.35
2018-10-16T07:34:59.119Z,13.44
2018-10-16T07:35:59.111Z,13.53
2018-10-16T07:36:59.107Z,13.53
2018-10-16T07:37:59.232Z,13.57
2018-10-16T07:38:59.186Z,13.67
2018-10-16T07:39:59.094Z,13.67
2018-10-16T07:40:59.094Z,13.71
2018-10-16T07:41:59.085Z,13.81
2018-10-16T07:42:59.085Z,13.72
2018-10-16T07:43:59.078Z,13.85
2018-10-16T07:45:00.068Z,13.77
2018-10-16T07:45:59.069Z,13.79
2018-10-16T07:46:59.067Z,13.90
2018-10-16T07:47:59.064Z,13.87
2018-10-16T07:48:59.061Z,13.87
2018-10-16T07:49:59.053Z,13.92
2018-10-16T07:50:59.055Z,14.07
2018-10-16T07:51:59.045Z,14.07
2018-10-16T07:52:59.044Z,14.15
2018-10-16T07:53:59.041Z,14.18
2018-10-16T07:54:59.037Z,14.26
2018-10-16T07:55:59.041Z,14.22
2018-10-16T07:56:59.086Z,14.25
2018-10-16T07:57:59.029Z,14.35
2018-10-16T07:58:59.025Z,14.45
2018-10-16T07:59:59.019Z,14.45
2018-10-16T08:00:59.019Z,14.45
2018-10-16T08:01:59.014Z,14.63
2018-10-16T08:02:59.009Z,14.69
2018-10-16T08:03:59.007Z,14.63
2018-10-16T08:04:59.001Z,14.66
2018-10-16T08:05:58.997Z,14.68
2018-10-16T08:06:58.997Z,14.69
2018-10-16T08:07:58.992Z,14.73
2018-10-16T08:08:58.988Z,14.73
2018-10-16T08:09:58.983Z,14.69
2018-10-16T08:10:58.975Z,14.78
2018-10-16T08:11:58.984Z,14.86
2018-10-16T08:12:58.975Z,14.91
2018-10-16T08:13:58.971Z,14.96
2018-10-16T08:14:58.970Z,14.89
2018-10-16T08:15:58.966Z,14.86
2018-10-16T08:16:59.016Z,14.91
2018-10-16T08:17:58.958Z,14.99
2018-10-16T08:18:58.955Z,15.07
2018-10-16T08:19:58.951Z,15.02
2018-10-16T08:20:58.947Z,15.11
2018-10-16T08:21:58.948Z,15.22
2018-10-16T08:22:58.943Z,15.24
2018-10-16T08:23:58.939Z,15.35
2018-10-16T08:24:58.936Z,15.27
2018-10-16T08:25:58.932Z,15.37
2018-10-16T08:26:58.981Z,15.31
2018-10-16T08:27:58.927Z,15.44
2018-10-16T08:28:58.931Z,15.54
2018-10-16T08:29:58.938Z,15.52
2018-10-16T08:30:58.919Z,15.58
2018-10-16T08:31:58.916Z,15.73
2018-10-16T08:32:58.947Z,15.62
2018-10-16T08:33:58.950Z,15.84
2018-10-16T08:34:58.907Z,15.90
2018-10-16T08:35:58.932Z,15.84
2018-10-16T08:36:59.084Z,15.84
2018-10-16T08:37:58.901Z,15.92
2018-10-16T08:38:58.899Z,15.95
2018-10-16T08:39:58.897Z,15.90
2018-10-16T08:40:58.894Z,15.92
2018-10-16T08:41:59.017Z,16.01
2018-10-16T08:42:58.887Z,16.09
2018-10-16T08:43:58.887Z,16.23
2018-10-16T08:44:58.946Z,16.24
2018-10-16T08:45:58.874Z,16.26
2018-10-16T08:46:58.875Z,16.28
2018-10-16T08:47:58.873Z,16.35
2018-10-16T08:48:58.871Z,16.35
2018-10-16T08:49:58.879Z,16.31
2018-10-16T08:50:58.865Z,16.43
2018-10-16T08:51:58.867Z,16.43
2018-10-16T08:52:58.862Z,16.58
2018-10-16T08:53:58.861Z,16.58
2018-10-16T08:54:58.918Z,16.68
2018-10-16T08:55:58.853Z,16.56
2018-10-16T08:56:58.851Z,16.60
2018-10-16T08:57:58.849Z,16.57
2018-10-16T08:58:58.849Z,16.68
2018-10-16T08:59:58.844Z,16.68
2018-10-16T09:00:58.842Z,16.68
2018-10-16T09:01:58.849Z,16.75
2018-10-16T09:02:58.840Z,16.76
2018-10-16T09:03:58.837Z,16.81
2018-10-16T09:04:58.832Z,16.83
2018-10-16T09:05:58.832Z,16.94
2018-10-16T09:06:58.829Z,17.11
2018-10-16T09:07:58.827Z,17.22
2018-10-16T09:08:58.833Z,17.24
2018-10-16T09:09:58.829Z,17.24
2018-10-16T09:10:58.822Z,17.34
2018-10-16T09:11:58.820Z,17.51
2018-10-16T09:12:58.841Z,17.52
2018-10-16T09:13:58.864Z,17.51
2018-10-16T09:14:58.816Z,17.52
2018-10-16T09:15:58.815Z,17.57
2018-10-16T09:16:58.814Z,17.57
2018-10-16T09:17:58.832Z,17.59
2018-10-16T09:18:58.808Z,17.68
2018-10-16T09:19:58.808Z,17.74
2018-10-16T09:20:58.802Z,17.71
2018-10-16T09:21:58.820Z,17.79
2018-10-16T09:22:58.799Z,17.79
2018-10-16T09:23:58.802Z,17.80
2018-10-16T09:24:58.839Z,17.70
2018-10-16T09:25:58.796Z,17.76
2018-10-16T09:26:58.817Z,17.74
2018-10-16T09:27:58.794Z,17.76
2018-10-16T09:28:58.795Z,17.76
2018-10-16T09:29:58.789Z,17.89
2018-10-16T09:30:58.799Z,17.89
2018-10-16T09:31:58.785Z,17.94
2018-10-16T09:32:58.786Z,18.00
2018-10-16T09:33:58.783Z,18.04
2018-10-16T09:34:58.782Z,18.13
2018-10-16T09:35:58.781Z,18.22
2018-10-16T09:36:59.523Z,18.26
2018-10-16T09:37:58.836Z,18.26
2018-10-16T09:38:58.775Z,18.33
2018-10-16T09:39:58.774Z,18.34
2018-10-16T09:40:58.776Z,18.41
2018-10-16T09:41:58.771Z,18.52
2018-10-16T09:42:58.770Z,18.50
2018-10-16T09:43:58.770Z,18.50
2018-10-16T09:44:58.768Z,18.52
2018-10-16T09:45:58.766Z,18.53
2018-10-16T09:46:58.766Z,18.53
2018-10-16T09:47:58.764Z,18.59
2018-10-16T09:48:58.765Z,18.73
2018-10-16T09:49:58.763Z,18.73
2018-10-16T09:50:58.757Z,18.73
2018-10-16T09:51:58.760Z,18.74
2018-10-16T09:52:58.759Z,18.73
2018-10-16T09:53:59.526Z,18.78
2018-10-16T09:54:58.755Z,18.81
2018-10-16T09:55:58.758Z,18.80
2018-10-16T09:56:58.755Z,18.78
2018-10-16T09:57:58.754Z,18.77
2018-10-16T09:58:58.751Z,18.78
2018-10-16T09:59:58.758Z,18.88
2018-10-16T10:00:58.813Z,18.86
2018-10-16T10:01:58.750Z,18.89
2018-10-16T10:02:58.794Z,18.89
2018-10-16T10:03:58.749Z,18.93
2018-10-16T10:04:58.749Z,18.90
2018-10-16T10:05:58.745Z,18.98
2018-10-16T10:06:58.758Z,19.00
2018-10-16T10:07:58.749Z,18.99
2018-10-16T10:08:58.744Z,19.09
2018-10-16T10:09:58.745Z,19.02
2018-10-16T10:10:58.794Z,19.08
2018-10-16T10:11:58.740Z,19.11
2018-10-16T10:12:58.743Z,19.14
2018-10-16T10:13:58.739Z,19.16
2018-10-16T10:14:58.744Z,19.21
2018-10-16T10:15:58.741Z,19.12
2018-10-16T10:16:58.744Z,19.15
2018-10-16T10:17:58.740Z,19.09
2018-10-16T10:18:58.739Z,19.09
2018-10-16T10:19:58.739Z,18.99
2018-10-16T10:20:58.739Z,18.98
2018-10-16T10:21:58.739Z,19.16
2018-10-16T10:22:58.735Z,19.15
2018-10-16T10:23:58.735Z,19.18
2018-10-16T10:24:58.791Z,19.21
2018-10-16T10:25:58.737Z,19.14
2018-10-16T10:26:58.742Z,19.27
2018-10-16T10:27:58.734Z,19.29
2018-10-16T10:28:58.733Z,19.27
2018-10-16T10:29:58.733Z,19.24
2018-10-16T10:30:58.728Z,19.37
2018-10-16T10:31:58.728Z,19.30
2018-10-16T10:32:58.730Z,19.33
2018-10-16T10:33:58.736Z,19.41
2018-10-16T10:34:58.729Z,19.33
2018-10-16T10:35:58.726Z,19.40
2018-10-16T10:36:58.729Z,19.39
2018-10-16T10:37:58.725Z,19.47
2018-10-16T10:38:58.729Z,19.48
2018-10-16T10:39:58.727Z,19.49
2018-10-16T10:40:58.728Z,19.63
2018-10-16T10:41:58.767Z,19.67
2018-10-16T10:42:58.728Z,19.63
2018-10-16T10:43:58.727Z,19.63
2018-10-16T10:44:58.727Z,19.70
2018-10-16T10:45:58.725Z,19.58
2018-10-16T10:46:58.732Z,19.52
2018-10-16T10:47:59.548Z,19.59
2018-10-16T10:48:58.726Z,19.64
2018-10-16T10:49:58.823Z,19.79
2018-10-16T10:50:58.959Z,19.76
2018-10-16T10:51:58.731Z,19.81
2018-10-16T10:52:58.726Z,19.88
2018-10-16T10:53:58.724Z,19.91
2018-10-16T10:54:58.725Z,19.74
2018-10-16T10:55:58.723Z,19.70
2018-10-16T10:56:59.082Z,19.63
2018-10-16T10:57:58.723Z,19.64
2018-10-16T10:58:58.723Z,19.71
2018-10-16T10:59:58.729Z,19.74
2018-10-16T11:00:58.726Z,19.74
2018-10-16T11:01:58.722Z,19.76
2018-10-16T11:02:58.757Z,19.77
2018-10-16T11:03:58.721Z,19.74
2018-10-16T11:04:58.723Z,19.88
2018-10-16T11:05:58.721Z,19.82
2018-10-16T11:06:58.721Z,19.89
2018-10-16T11:07:58.720Z,20.00
2018-10-16T11:08:58.737Z,19.96
2018-10-16T11:09:58.726Z,20.02
2018-10-16T11:10:58.723Z,20.11
2018-10-16T11:11:58.724Z,20.26
2018-10-16T11:12:58.731Z,20.25
2018-10-16T11:13:58.721Z,20.40
2018-10-16T11:14:58.777Z,20.36
2018-10-16T11:15:58.720Z,20.40
2018-10-16T11:16:58.753Z,20.40
2018-10-16T11:17:58.719Z,20.47
2018-10-16T11:18:58.721Z,20.58
2018-10-16T11:19:59.552Z,20.47
2018-10-16T11:20:58.744Z,20.50
2018-10-16T11:21:58.737Z,20.44
2018-10-16T11:22:58.717Z,20.58
2018-10-16T11:23:58.718Z,20.47
2018-10-16T11:24:58.721Z,20.51
2018-10-16T11:25:58.720Z,20.56
2018-10-16T11:26:58.844Z,20.62
2018-10-16T11:27:58.720Z,20.65
2018-10-16T11:28:58.722Z,20.60
2018-10-16T11:29:58.747Z,20.66
2018-10-16T11:30:58.722Z,20.69
2018-10-16T11:31:58.731Z,20.74
2018-10-16T11:32:58.736Z,20.74
2018-10-16T11:33:58.722Z,20.78
2018-10-16T11:34:58.722Z,20.63
2018-10-16T11:35:58.721Z,20.77
2018-10-16T11:36:58.903Z,20.77
2018-10-16T11:37:58.725Z,20.88
2018-10-16T11:38:58.729Z,20.97
2018-10-16T11:39:58.723Z,21.02
2018-10-16T11:40:58.728Z,20.95
2018-10-16T11:41:58.737Z,20.95
2018-10-16T11:42:58.725Z,20.97
2018-10-16T11:43:58.733Z,21.03
2018-10-16T11:44:58.748Z,20.96
2018-10-16T11:45:58.726Z,21.07
2018-10-16T11:46:58.763Z,21.06
2018-10-16T11:47:58.728Z,20.97
2018-10-16T11:48:58.727Z,21.03
2018-10-16T11:49:58.785Z,21.12
2018-10-16T11:50:58.730Z,21.20
2018-10-16T11:51:58.843Z,21.21
2018-10-16T11:52:58.736Z,21.29
2018-10-16T11:53:58.730Z,21.29
2018-10-16T11:54:58.735Z,21.32
2018-10-16T11:55:58.751Z,21.39
2018-10-16T11:56:58.783Z,21.46
2018-10-16T11:57:58.726Z,21.46
2018-10-16T11:58:58.732Z,21.36
2018-10-16T11:59:58.743Z,21.46
2018-10-16T12:00:58.743Z,21.54
2018-10-16T12:01:58.781Z,21.48
2018-10-16T12:02:58.740Z,21.40
2018-10-16T12:03:58.736Z,21.37
2018-10-16T12:04:58.740Z,21.51
2018-10-16T12:05:58.800Z,21.39
2018-10-16T12:06:58.799Z,21.46
2018-10-16T12:07:58.775Z,21.42
2018-10-16T12:08:58.741Z,21.46
2018-10-16T12:09:58.744Z,21.48
2018-10-16T12:10:58.759Z,21.50
2018-10-16T12:11:58.764Z,21.57
2018-10-16T12:12:58.763Z,21.55
2018-10-16T12:13:58.804Z,21.42
2018-10-16T12:14:58.747Z,21.60
2018-10-16T12:15:58.748Z,21.54
2018-10-16T12:16:58.831Z,21.66
2018-10-16T12:17:58.747Z,21.69
2018-10-16T12:18:58.804Z,21.99
2018-10-16T12:19:58.814Z,21.72
2018-10-16T12:20:58.786Z,21.67
2018-10-16T12:21:58.754Z,21.73
2018-10-16T12:22:58.761Z,21.77
2018-10-16T12:23:59.635Z,21.69
2018-10-16T12:24:58.765Z,21.60
2018-10-16T12:25:58.757Z,21.46
2018-10-16T12:26:58.863Z,21.25
2018-10-16T12:27:58.762Z,21.20
2018-10-16T12:28:58.817Z,21.39
2018-10-16T12:29:58.762Z,21.43
2018-10-16T12:30:58.814Z,21.52
2018-10-16T12:31:58.781Z,21.51
2018-10-16T12:32:58.818Z,21.54
2018-10-16T12:33:58.766Z,21.54
2018-10-16T12:34:58.772Z,21.32
2018-10-16T12:35:58.769Z,21.29
2018-10-16T12:36:59.638Z,21.27
2018-10-16T12:37:58.768Z,21.42
2018-10-16T12:38:58.810Z,21.39
2018-10-16T12:39:58.779Z,21.46
2018-10-16T12:40:58.796Z,21.70
2018-10-16T12:41:58.794Z,21.66
2018-10-16T12:42:58.875Z,21.79
2018-10-16T12:43:58.782Z,21.76
2018-10-16T12:44:58.839Z,21.82
2018-10-16T12:45:58.808Z,21.79
2018-10-16T12:46:58.835Z,21.95
2018-10-16T12:47:58.804Z,21.80
2018-10-16T12:48:58.781Z,21.80
2018-10-16T12:49:58.786Z,21.66
2018-10-16T12:50:58.790Z,21.58
2018-10-16T12:51:58.789Z,21.69
2018-10-16T12:52:58.812Z,21.55
2018-10-16T12:53:58.835Z,21.45
2018-10-16T12:54:58.798Z,21.27
2018-10-16T12:55:58.806Z,21.29
2018-10-16T12:56:58.830Z,21.46
2018-10-16T12:57:58.797Z,21.39
2018-10-16T12:58:58.832Z,21.45